sensor_id;sensor_type;location;lat;lon;timestamp;P1;durP1;ratioP1;P2;durP2;ratioP2
22388;SDS011;11362;48.102;11.620;2022-10-16T00:00:39;1.20;;;0.80;;
22388;SDS011;11362;48.102;11.620;2022-10-16T00:03:06;0.80;;;0.80;;
22388;SDS011;11362;48.102;11.620;2022-10-16T00:05:32;1.23;;;0.90;;
22388;SDS011;11362;48.102;11.620;2022-10-16T00:07:57;0.83;;;0.67;;
22388;SDS011;11362;48.102;11.620;2022-10-16T00:10:23;0.80;;;0.80;;
22388;SDS011;11362;48.102;11.620;2022-10-16T00:12:50;2.17;;;1.03;;
22388;SDS011;11362;48.102;11.620;2022-10-16T00:15:15;2.23;;;1.07;;
22388;SDS011;11362;48.102;11.620;2022-10-16T00:17:41;1.10;;;1.00;;
22388;SDS011;11362;48.102;11.620;2022-10-16T00:20:06;1.30;;;0.80;;
22388;SDS011;11362;48.102;11.620;2022-10-16T00:22:32;1.13;;;0.90;;
22388;SDS011;11362;48.102;11.620;2022-10-16T00:24:58;1.63;;;1.00;;
22388;SDS011;11362;48.102;11.620;2022-10-16T00:27:23;0.80;;;0.80;;
22388;SDS011;11362;48.102;11.620;2022-10-16T00:29:51;0.97;;;0.87;;
22388;SDS011;11362;48.102;11.620;2022-10-16T00:32:18;1.23;;;0.90;;
22388;SDS011;11362;48.102;11.620;2022-10-16T00:34:44;0.80;;;0.80;;
22388;SDS011;11362;48.102;11.620;2022-10-16T00:37:09;0.93;;;0.93;;
22388;SDS011;11362;48.102;11.620;2022-10-16T00:39:34;2.10;;;1.03;;
22388;SDS011;11362;48.102;11.620;2022-10-16T00:42:00;3.47;;;0.93;;
22388;SDS011;11362;48.102;11.620;2022-10-16T00:47:07;1.07;;;0.77;;
22388;SDS011;11362;48.102;11.620;2022-10-16T00:49:35;0.87;;;0.87;;
22388;SDS011;11362;48.102;11.620;2022-10-16T00:52:00;0.73;;;0.73;;
22388;SDS011;11362;48.102;11.620;2022-10-16T00:54:26;0.77;;;0.77;;
22388;SDS011;11362;48.102;11.620;2022-10-16T00:56:54;0.83;;;0.80;;
22388;SDS011;11362;48.102;11.620;2022-10-16T00:59:28;1.33;;;0.77;;
22388;SDS011;11362;48.102;11.620;2022-10-16T01:01:59;0.50;;;0.50;;
22388;SDS011;11362;48.102;11.620;2022-10-16T01:04:24;0.80;;;0.80;;
22388;SDS011;11362;48.102;11.620;2022-10-16T01:09:41;1.00;;;1.00;;
22388;SDS011;11362;48.102;11.620;2022-10-16T01:12:39;1.27;;;0.90;;
22388;SDS011;11362;48.102;11.620;2022-10-16T01:20:54;0.87;;;0.80;;
22388;SDS011;11362;48.102;11.620;2022-10-16T01:23:33;0.70;;;0.70;;
22388;SDS011;11362;48.102;11.620;2022-10-16T01:28:51;0.93;;;0.70;;
22388;SDS011;11362;48.102;11.620;2022-10-16T01:31:18;0.90;;;0.70;;
22388;SDS011;11362;48.102;11.620;2022-10-16T01:33:48;0.90;;;0.80;;
22388;SDS011;11362;48.102;11.620;2022-10-16T01:36:21;0.50;;;0.50;;
22388;SDS011;11362;48.102;11.620;2022-10-16T01:38:51;0.87;;;0.70;;
22388;SDS011;11362;48.102;11.620;2022-10-16T01:41:27;0.77;;;0.63;;
22388;SDS011;11362;48.102;11.620;2022-10-16T01:46:32;0.70;;;0.70;;
22388;SDS011;11362;48.102;11.620;2022-10-16T01:49:00;0.67;;;0.67;;
22388;SDS011;11362;48.102;11.620;2022-10-16T01:51:26;0.60;;;0.60;;
22388;SDS011;11362;48.102;11.620;2022-10-16T01:53:55;0.80;;;0.80;;
22388;SDS011;11362;48.102;11.620;2022-10-16T01:56:24;2.10;;;0.90;;
22388;SDS011;11362;48.102;11.620;2022-10-16T01:59:12;0.60;;;0.60;;
22388;SDS011;11362;48.102;11.620;2022-10-16T02:01:38;0.93;;;0.70;;
22388;SDS011;11362;48.102;11.620;2022-10-16T02:04:29;0.57;;;0.57;;
22388;SDS011;11362;48.102;11.620;2022-10-16T02:06:56;1.00;;;0.70;;
22388;SDS011;11362;48.102;11.620;2022-10-16T02:09:21;0.70;;;0.70;;
22388;SDS011;11362;48.102;11.620;2022-10-16T02:11:47;0.60;;;0.60;;
22388;SDS011;11362;48.102;11.620;2022-10-16T02:14:13;0.60;;;0.60;;
22388;SDS011;11362;48.102;11.620;2022-10-16T02:16:42;1.87;;;0.80;;
22388;SDS011;11362;48.102;11.620;2022-10-16T02:19:09;1.80;;;0.60;;
22388;SDS011;11362;48.102;11.620;2022-10-16T02:21:55;0.93;;;0.70;;
22388;SDS011;11362;48.102;11.620;2022-10-16T02:24:24;0.93;;;0.60;;
22388;SDS011;11362;48.102;11.620;2022-10-16T02:26:52;0.70;;;0.70;;
22388;SDS011;11362;48.102;11.620;2022-10-16T02:29:43;1.70;;;0.60;;
22388;SDS011;11362;48.102;11.620;2022-10-16T02:32:13;1.03;;;0.70;;
22388;SDS011;11362;48.102;11.620;2022-10-16T02:34:42;0.80;;;0.63;;
22388;SDS011;11362;48.102;11.620;2022-10-16T02:37:08;1.27;;;0.77;;
22388;SDS011;11362;48.102;11.620;2022-10-16T02:39:34;0.77;;;0.77;;
22388;SDS011;11362;48.102;11.620;2022-10-16T02:41:59;0.50;;;0.50;;
22388;SDS011;11362;48.102;11.620;2022-10-16T02:44:25;0.60;;;0.60;;
22388;SDS011;11362;48.102;11.620;2022-10-16T02:46:50;0.50;;;0.50;;
22388;SDS011;11362;48.102;11.620;2022-10-16T02:49:15;1.40;;;0.83;;
22388;SDS011;11362;48.102;11.620;2022-10-16T02:51:41;0.63;;;0.63;;
22388;SDS011;11362;48.102;11.620;2022-10-16T02:54:06;1.10;;;0.70;;
22388;SDS011;11362;48.102;11.620;2022-10-16T02:56:31;0.60;;;0.60;;
22388;SDS011;11362;48.102;11.620;2022-10-16T02:58:57;0.80;;;0.70;;
22388;SDS011;11362;48.102;11.620;2022-10-16T03:01:22;0.50;;;0.50;;
22388;SDS011;11362;48.102;11.620;2022-10-16T03:03:48;0.73;;;0.73;;
22388;SDS011;11362;48.102;11.620;2022-10-16T03:06:13;0.70;;;0.70;;
22388;SDS011;11362;48.102;11.620;2022-10-16T03:08:38;0.87;;;0.70;;
22388;SDS011;11362;48.102;11.620;2022-10-16T03:11:04;0.60;;;0.60;;
22388;SDS011;11362;48.102;11.620;2022-10-16T03:13:30;1.20;;;0.60;;
22388;SDS011;11362;48.102;11.620;2022-10-16T03:15:55;0.70;;;0.70;;
22388;SDS011;11362;48.102;11.620;2022-10-16T03:18:20;0.53;;;0.53;;
22388;SDS011;11362;48.102;11.620;2022-10-16T03:20:46;0.50;;;0.50;;
22388;SDS011;11362;48.102;11.620;2022-10-16T03:23:11;0.70;;;0.70;;
22388;SDS011;11362;48.102;11.620;2022-10-16T03:25:36;0.57;;;0.57;;
22388;SDS011;11362;48.102;11.620;2022-10-16T03:28:02;0.80;;;0.80;;
22388;SDS011;11362;48.102;11.620;2022-10-16T03:30:28;0.47;;;0.47;;
22388;SDS011;11362;48.102;11.620;2022-10-16T03:32:53;0.60;;;0.60;;
22388;SDS011;11362;48.102;11.620;2022-10-16T03:35:19;0.80;;;0.70;;
22388;SDS011;11362;48.102;11.620;2022-10-16T03:37:45;0.93;;;0.70;;
22388;SDS011;11362;48.102;11.620;2022-10-16T03:40:10;0.50;;;0.50;;
22388;SDS011;11362;48.102;11.620;2022-10-16T03:42:35;0.60;;;0.60;;
22388;SDS011;11362;48.102;11.620;2022-10-16T03:45:00;0.73;;;0.60;;
22388;SDS011;11362;48.102;11.620;2022-10-16T03:47:26;0.60;;;0.60;;
22388;SDS011;11362;48.102;11.620;2022-10-16T03:49:51;0.60;;;0.60;;
22388;SDS011;11362;48.102;11.620;2022-10-16T03:52:16;0.50;;;0.50;;
22388;SDS011;11362;48.102;11.620;2022-10-16T03:54:42;0.70;;;0.70;;
22388;SDS011;11362;48.102;11.620;2022-10-16T03:57:07;0.60;;;0.60;;
22388;SDS011;11362;48.102;11.620;2022-10-16T03:59:32;0.60;;;0.60;;
22388;SDS011;11362;48.102;11.620;2022-10-16T04:01:58;0.60;;;0.60;;
22388;SDS011;11362;48.102;11.620;2022-10-16T04:04:23;0.87;;;0.60;;
22388;SDS011;11362;48.102;11.620;2022-10-16T04:06:48;0.50;;;0.50;;
22388;SDS011;11362;48.102;11.620;2022-10-16T04:09:14;0.60;;;0.60;;
22388;SDS011;11362;48.102;11.620;2022-10-16T04:11:39;0.50;;;0.50;;
22388;SDS011;11362;48.102;11.620;2022-10-16T04:14:04;0.43;;;0.43;;
22388;SDS011;11362;48.102;11.620;2022-10-16T04:16:30;1.03;;;0.57;;
22388;SDS011;11362;48.102;11.620;2022-10-16T04:18:55;2.43;;;0.70;;
22388;SDS011;11362;48.102;11.620;2022-10-16T04:21:20;0.70;;;0.70;;
22388;SDS011;11362;48.102;11.620;2022-10-16T04:23:45;0.60;;;0.60;;
22388;SDS011;11362;48.102;11.620;2022-10-16T04:26:11;0.57;;;0.57;;
22388;SDS011;11362;48.102;11.620;2022-10-16T04:28:36;0.50;;;0.50;;
22388;SDS011;11362;48.102;11.620;2022-10-16T04:31:04;0.70;;;0.50;;
22388;SDS011;11362;48.102;11.620;2022-10-16T04:33:30;0.53;;;0.53;;
22388;SDS011;11362;48.102;11.620;2022-10-16T04:35:56;1.03;;;0.60;;
22388;SDS011;11362;48.102;11.620;2022-10-16T04:38:25;0.70;;;0.70;;
22388;SDS011;11362;48.102;11.620;2022-10-16T04:40:51;1.63;;;0.90;;
22388;SDS011;11362;48.102;11.620;2022-10-16T04:43:17;0.80;;;0.80;;
22388;SDS011;11362;48.102;11.620;2022-10-16T04:45:42;1.30;;;0.80;;
22388;SDS011;11362;48.102;11.620;2022-10-16T04:48:08;1.00;;;0.80;;
22388;SDS011;11362;48.102;11.620;2022-10-16T04:50:33;0.87;;;0.80;;
22388;SDS011;11362;48.102;11.620;2022-10-16T04:52:58;1.00;;;1.00;;
22388;SDS011;11362;48.102;11.620;2022-10-16T04:55:23;0.70;;;0.60;;
22388;SDS011;11362;48.102;11.620;2022-10-16T04:57:49;1.07;;;0.57;;
22388;SDS011;11362;48.102;11.620;2022-10-16T05:00:14;2.43;;;0.60;;
22388;SDS011;11362;48.102;11.620;2022-10-16T05:02:39;0.70;;;0.70;;
22388;SDS011;11362;48.102;11.620;2022-10-16T05:05:05;0.80;;;0.80;;
22388;SDS011;11362;48.102;11.620;2022-10-16T05:07:30;0.77;;;0.70;;
22388;SDS011;11362;48.102;11.620;2022-10-16T05:09:56;0.87;;;0.60;;
22388;SDS011;11362;48.102;11.620;2022-10-16T05:12:21;0.60;;;0.60;;
22388;SDS011;11362;48.102;11.620;2022-10-16T05:14:46;0.80;;;0.80;;
22388;SDS011;11362;48.102;11.620;2022-10-16T05:17:11;0.90;;;0.90;;
22388;SDS011;11362;48.102;11.620;2022-10-16T05:19:37;0.97;;;0.50;;
22388;SDS011;11362;48.102;11.620;2022-10-16T05:22:02;1.90;;;0.90;;
22388;SDS011;11362;48.102;11.620;2022-10-16T05:24:27;0.50;;;0.50;;
22388;SDS011;11362;48.102;11.620;2022-10-16T05:26:52;1.37;;;0.67;;
22388;SDS011;11362;48.102;11.620;2022-10-16T05:29:18;0.63;;;0.60;;
22388;SDS011;11362;48.102;11.620;2022-10-16T05:31:43;3.70;;;0.80;;
22388;SDS011;11362;48.102;11.620;2022-10-16T05:34:08;3.10;;;0.50;;
22388;SDS011;11362;48.102;11.620;2022-10-16T05:36:34;1.37;;;0.50;;
22388;SDS011;11362;48.102;11.620;2022-10-16T05:38:59;0.40;;;0.40;;
22388;SDS011;11362;48.102;11.620;2022-10-16T05:41:24;0.80;;;0.70;;
22388;SDS011;11362;48.102;11.620;2022-10-16T05:43:50;0.70;;;0.70;;
22388;SDS011;11362;48.102;11.620;2022-10-16T05:46:15;0.50;;;0.50;;
22388;SDS011;11362;48.102;11.620;2022-10-16T05:48:41;0.70;;;0.50;;
22388;SDS011;11362;48.102;11.620;2022-10-16T05:51:07;0.60;;;0.50;;
22388;SDS011;11362;48.102;11.620;2022-10-16T05:53:35;1.77;;;0.60;;
22388;SDS011;11362;48.102;11.620;2022-10-16T05:56:02;0.70;;;0.67;;
22388;SDS011;11362;48.102;11.620;2022-10-16T05:58:29;1.07;;;0.60;;
22388;SDS011;11362;48.102;11.620;2022-10-16T06:00:57;3.70;;;0.70;;
22388;SDS011;11362;48.102;11.620;2022-10-16T06:03:24;1.13;;;0.50;;
22388;SDS011;11362;48.102;11.620;2022-10-16T06:05:50;6.07;;;1.20;;
22388;SDS011;11362;48.102;11.620;2022-10-16T06:08:16;3.40;;;1.37;;
22388;SDS011;11362;48.102;11.620;2022-10-16T06:10:42;6.73;;;1.13;;
22388;SDS011;11362;48.102;11.620;2022-10-16T06:13:07;16.00;;;1.80;;
22388;SDS011;11362;48.102;11.620;2022-10-16T06:15:33;5.80;;;1.70;;
22388;SDS011;11362;48.102;11.620;2022-10-16T06:17:58;5.53;;;1.60;;
22388;SDS011;11362;48.102;11.620;2022-10-16T06:20:23;10.67;;;2.00;;
22388;SDS011;11362;48.102;11.620;2022-10-16T06:22:49;8.97;;;2.33;;
22388;SDS011;11362;48.102;11.620;2022-10-16T06:25:14;8.00;;;1.40;;
22388;SDS011;11362;48.102;11.620;2022-10-16T06:27:39;11.67;;;1.70;;
22388;SDS011;11362;48.102;11.620;2022-10-16T06:30:05;20.80;;;2.73;;
22388;SDS011;11362;48.102;11.620;2022-10-16T06:32:31;14.73;;;2.10;;
22388;SDS011;11362;48.102;11.620;2022-10-16T06:34:56;6.00;;;1.37;;
22388;SDS011;11362;48.102;11.620;2022-10-16T06:37:22;6.93;;;1.50;;
22388;SDS011;11362;48.102;11.620;2022-10-16T06:39:47;9.33;;;1.60;;
22388;SDS011;11362;48.102;11.620;2022-10-16T06:42:12;17.23;;;1.87;;
22388;SDS011;11362;48.102;11.620;2022-10-16T06:44:38;5.67;;;2.00;;
22388;SDS011;11362;48.102;11.620;2022-10-16T06:47:03;10.93;;;1.53;;
22388;SDS011;11362;48.102;11.620;2022-10-16T06:49:28;5.83;;;1.57;;
22388;SDS011;11362;48.102;11.620;2022-10-16T06:51:53;1.30;;;1.20;;
22388;SDS011;11362;48.102;11.620;2022-10-16T06:54:19;2.53;;;1.00;;
22388;SDS011;11362;48.102;11.620;2022-10-16T06:56:44;1.07;;;1.07;;
22388;SDS011;11362;48.102;11.620;2022-10-16T06:59:09;3.43;;;1.27;;
22388;SDS011;11362;48.102;11.620;2022-10-16T07:01:35;1.60;;;1.10;;
22388;SDS011;11362;48.102;11.620;2022-10-16T07:04:00;6.20;;;1.10;;
22388;SDS011;11362;48.102;11.620;2022-10-16T07:06:26;4.27;;;1.10;;
22388;SDS011;11362;48.102;11.620;2022-10-16T07:08:52;5.40;;;1.23;;
22388;SDS011;11362;48.102;11.620;2022-10-16T07:11:19;1.80;;;1.50;;
22388;SDS011;11362;48.102;11.620;2022-10-16T07:13:46;4.80;;;1.30;;
22388;SDS011;11362;48.102;11.620;2022-10-16T07:16:17;4.77;;;1.20;;
22388;SDS011;11362;48.102;11.620;2022-10-16T07:18:44;2.60;;;1.53;;
22388;SDS011;11362;48.102;11.620;2022-10-16T07:21:10;4.73;;;1.80;;
22388;SDS011;11362;48.102;11.620;2022-10-16T07:23:38;2.93;;;1.43;;
22388;SDS011;11362;48.102;11.620;2022-10-16T07:26:04;2.57;;;1.40;;
22388;SDS011;11362;48.102;11.620;2022-10-16T07:28:30;3.97;;;1.40;;
22388;SDS011;11362;48.102;11.620;2022-10-16T07:30:59;4.87;;;1.23;;
22388;SDS011;11362;48.102;11.620;2022-10-16T07:33:25;6.47;;;1.53;;
22388;SDS011;11362;48.102;11.620;2022-10-16T07:35:51;1.90;;;1.20;;
22388;SDS011;11362;48.102;11.620;2022-10-16T07:38:17;2.37;;;1.00;;
22388;SDS011;11362;48.102;11.620;2022-10-16T07:40:43;1.00;;;1.00;;
22388;SDS011;11362;48.102;11.620;2022-10-16T07:43:08;5.40;;;1.00;;
22388;SDS011;11362;48.102;11.620;2022-10-16T07:45:34;4.60;;;1.43;;
22388;SDS011;11362;48.102;11.620;2022-10-16T07:47:59;2.20;;;0.90;;
22388;SDS011;11362;48.102;11.620;2022-10-16T07:50:25;2.60;;;1.00;;
22388;SDS011;11362;48.102;11.620;2022-10-16T07:52:50;1.43;;;1.13;;
22388;SDS011;11362;48.102;11.620;2022-10-16T07:55:15;3.47;;;1.30;;
22388;SDS011;11362;48.102;11.620;2022-10-16T07:57:40;1.43;;;1.33;;
22388;SDS011;11362;48.102;11.620;2022-10-16T08:00:06;2.57;;;1.00;;
22388;SDS011;11362;48.102;11.620;2022-10-16T08:02:32;2.37;;;1.33;;
22388;SDS011;11362;48.102;11.620;2022-10-16T08:04:57;4.30;;;1.30;;
22388;SDS011;11362;48.102;11.620;2022-10-16T08:07:22;1.83;;;1.13;;
22388;SDS011;11362;48.102;11.620;2022-10-16T08:09:50;1.73;;;1.00;;
22388;SDS011;11362;48.102;11.620;2022-10-16T08:12:16;1.43;;;1.10;;
22388;SDS011;11362;48.102;11.620;2022-10-16T08:14:41;4.47;;;1.70;;
22388;SDS011;11362;48.102;11.620;2022-10-16T08:17:06;1.50;;;1.40;;
22388;SDS011;11362;48.102;11.620;2022-10-16T08:19:31;1.03;;;1.00;;
22388;SDS011;11362;48.102;11.620;2022-10-16T08:21:57;1.30;;;1.07;;
22388;SDS011;11362;48.102;11.620;2022-10-16T08:24:22;1.40;;;1.30;;
22388;SDS011;11362;48.102;11.620;2022-10-16T08:26:47;1.20;;;1.10;;
22388;SDS011;11362;48.102;11.620;2022-10-16T08:29:13;1.30;;;1.20;;
22388;SDS011;11362;48.102;11.620;2022-10-16T08:31:39;4.80;;;1.33;;
22388;SDS011;11362;48.102;11.620;2022-10-16T08:34:04;1.47;;;1.07;;
22388;SDS011;11362;48.102;11.620;2022-10-16T08:36:29;1.73;;;0.90;;
22388;SDS011;11362;48.102;11.620;2022-10-16T08:38:55;0.93;;;0.93;;
22388;SDS011;11362;48.102;11.620;2022-10-16T08:41:23;1.50;;;1.40;;
22388;SDS011;11362;48.102;11.620;2022-10-16T08:49:33;1.27;;;1.20;;
22388;SDS011;11362;48.102;11.620;2022-10-16T08:51:58;2.63;;;1.00;;
22388;SDS011;11362;48.102;11.620;2022-10-16T08:54:34;1.40;;;1.30;;
22388;SDS011;11362;48.102;11.620;2022-10-16T08:57:14;1.30;;;1.20;;
22388;SDS011;11362;48.102;11.620;2022-10-16T08:59:45;1.37;;;1.27;;
22388;SDS011;11362;48.102;11.620;2022-10-16T09:02:31;2.80;;;1.20;;
22388;SDS011;11362;48.102;11.620;2022-10-16T09:10:42;1.00;;;0.90;;
22388;SDS011;11362;48.102;11.620;2022-10-16T09:15:48;1.43;;;1.07;;
22388;SDS011;11362;48.102;11.620;2022-10-16T09:18:38;1.00;;;1.00;;
22388;SDS011;11362;48.102;11.620;2022-10-16T09:21:14;1.67;;;1.10;;
22388;SDS011;11362;48.102;11.620;2022-10-16T09:23:43;2.00;;;1.10;;
22388;SDS011;11362;48.102;11.620;2022-10-16T09:26:10;2.10;;;1.10;;
22388;SDS011;11362;48.102;11.620;2022-10-16T09:28:37;1.97;;;0.87;;
22388;SDS011;11362;48.102;11.620;2022-10-16T09:31:03;1.33;;;1.00;;
22388;SDS011;11362;48.102;11.620;2022-10-16T09:33:29;2.40;;;1.10;;
22388;SDS011;11362;48.102;11.620;2022-10-16T09:36:00;0.90;;;0.90;;
22388;SDS011;11362;48.102;11.620;2022-10-16T09:38:29;1.23;;;1.10;;
22388;SDS011;11362;48.102;11.620;2022-10-16T09:40:57;0.90;;;0.90;;
22388;SDS011;11362;48.102;11.620;2022-10-16T09:43:39;1.53;;;0.90;;
22388;SDS011;11362;48.102;11.620;2022-10-16T09:46:27;0.93;;;0.93;;
22388;SDS011;11362;48.102;11.620;2022-10-16T09:48:58;1.00;;;1.00;;
22388;SDS011;11362;48.102;11.620;2022-10-16T09:51:43;1.00;;;1.00;;
22388;SDS011;11362;48.102;11.620;2022-10-16T09:56:35;2.07;;;1.00;;
22388;SDS011;11362;48.102;11.620;2022-10-16T09:59:12;0.90;;;0.90;;
22388;SDS011;11362;48.102;11.620;2022-10-16T10:04:18;1.17;;;1.00;;
22388;SDS011;11362;48.102;11.620;2022-10-16T10:06:46;1.27;;;0.97;;
22388;SDS011;11362;48.102;11.620;2022-10-16T10:09:26;0.90;;;0.90;;
22388;SDS011;11362;48.102;11.620;2022-10-16T10:19:47;1.03;;;1.03;;
22388;SDS011;11362;48.102;11.620;2022-10-16T10:46:32;0.90;;;0.90;;
22388;SDS011;11362;48.102;11.620;2022-10-16T10:49:10;1.50;;;1.40;;
22388;SDS011;11362;48.102;11.620;2022-10-16T10:52:00;1.03;;;1.03;;
22388;SDS011;11362;48.102;11.620;2022-10-16T10:54:49;0.90;;;0.90;;
22388;SDS011;11362;48.102;11.620;2022-10-16T10:57:34;2.20;;;1.10;;
22388;SDS011;11362;48.102;11.620;2022-10-16T11:02:41;0.80;;;0.80;;
22388;SDS011;11362;48.102;11.620;2022-10-16T11:05:31;0.70;;;0.70;;
22388;SDS011;11362;48.102;11.620;2022-10-16T11:08:13;0.90;;;0.90;;
22388;SDS011;11362;48.102;11.620;2022-10-16T11:11:00;0.90;;;0.90;;
22388;SDS011;11362;48.102;11.620;2022-10-16T11:16:06;0.60;;;0.60;;
22388;SDS011;11362;48.102;11.620;2022-10-16T11:18:52;1.03;;;1.03;;
22388;SDS011;11362;48.102;11.620;2022-10-16T11:21:24;1.07;;;1.07;;
22388;SDS011;11362;48.102;11.620;2022-10-16T11:23:56;0.80;;;0.80;;
22388;SDS011;11362;48.102;11.620;2022-10-16T11:26:51;0.70;;;0.70;;
22388;SDS011;11362;48.102;11.620;2022-10-16T11:29:29;1.03;;;0.90;;
22388;SDS011;11362;48.102;11.620;2022-10-16T11:31:57;0.80;;;0.80;;
22388;SDS011;11362;48.102;11.620;2022-10-16T11:37:11;0.83;;;0.83;;
22388;SDS011;11362;48.102;11.620;2022-10-16T11:39:41;0.60;;;0.60;;
22388;SDS011;11362;48.102;11.620;2022-10-16T11:42:22;0.90;;;0.90;;
22388;SDS011;11362;48.102;11.620;2022-10-16T11:44:57;0.77;;;0.77;;
22388;SDS011;11362;48.102;11.620;2022-10-16T11:47:41;1.00;;;1.00;;
22388;SDS011;11362;48.102;11.620;2022-10-16T11:51:17;0.73;;;0.70;;
22388;SDS011;11362;48.102;11.620;2022-10-16T11:56:15;0.73;;;0.73;;
22388;SDS011;11362;48.102;11.620;2022-10-16T11:58:54;0.80;;;0.80;;
22388;SDS011;11362;48.102;11.620;2022-10-16T12:01:31;1.00;;;0.90;;
22388;SDS011;11362;48.102;11.620;2022-10-16T12:04:16;1.03;;;1.03;;
22388;SDS011;11362;48.102;11.620;2022-10-16T12:09:27;0.60;;;0.60;;
22388;SDS011;11362;48.102;11.620;2022-10-16T12:11:54;0.90;;;0.90;;
22388;SDS011;11362;48.102;11.620;2022-10-16T12:17:03;0.90;;;0.90;;
22388;SDS011;11362;48.102;11.620;2022-10-16T12:19:59;0.67;;;0.67;;
22388;SDS011;11362;48.102;11.620;2022-10-16T12:22:26;0.87;;;0.87;;
22388;SDS011;11362;48.102;11.620;2022-10-16T12:24:54;0.80;;;0.80;;
22388;SDS011;11362;48.102;11.620;2022-10-16T12:27:22;0.70;;;0.70;;
22388;SDS011;11362;48.102;11.620;2022-10-16T12:29:57;0.50;;;0.50;;
22388;SDS011;11362;48.102;11.620;2022-10-16T12:34:53;1.03;;;0.93;;
22388;SDS011;11362;48.102;11.620;2022-10-16T12:37:25;0.80;;;0.80;;
22388;SDS011;11362;48.102;11.620;2022-10-16T12:39:53;0.80;;;0.80;;
22388;SDS011;11362;48.102;11.620;2022-10-16T12:44:52;1.00;;;1.00;;
22388;SDS011;11362;48.102;11.620;2022-10-16T12:49:55;0.60;;;0.60;;
22388;SDS011;11362;48.102;11.620;2022-10-16T12:54:59;0.60;;;0.60;;
22388;SDS011;11362;48.102;11.620;2022-10-16T13:02:35;0.73;;;0.73;;
22388;SDS011;11362;48.102;11.620;2022-10-16T13:08:04;0.70;;;0.70;;
22388;SDS011;11362;48.102;11.620;2022-10-16T13:18:40;0.70;;;0.70;;
22388;SDS011;11362;48.102;11.620;2022-10-16T13:21:30;0.80;;;0.80;;
22388;SDS011;11362;48.102;11.620;2022-10-16T13:26:55;1.40;;;0.60;;
22388;SDS011;11362;48.102;11.620;2022-10-16T13:29:30;0.70;;;0.70;;
22388;SDS011;11362;48.102;11.620;2022-10-16T13:31:57;0.60;;;0.60;;
22388;SDS011;11362;48.102;11.620;2022-10-16T13:34:25;0.70;;;0.70;;
22388;SDS011;11362;48.102;11.620;2022-10-16T13:36:52;0.70;;;0.70;;
22388;SDS011;11362;48.102;11.620;2022-10-16T13:42:13;0.60;;;0.60;;
22388;SDS011;11362;48.102;11.620;2022-10-16T13:44:43;0.87;;;0.87;;
22388;SDS011;11362;48.102;11.620;2022-10-16T13:47:20;0.60;;;0.60;;
22388;SDS011;11362;48.102;11.620;2022-10-16T13:50:01;0.80;;;0.80;;
22388;SDS011;11362;48.102;11.620;2022-10-16T13:52:31;0.70;;;0.70;;
22388;SDS011;11362;48.102;11.620;2022-10-16T13:54:56;0.60;;;0.60;;
22388;SDS011;11362;48.102;11.620;2022-10-16T13:57:23;0.60;;;0.60;;
22388;SDS011;11362;48.102;11.620;2022-10-16T13:59:49;0.70;;;0.70;;
22388;SDS011;11362;48.102;11.620;2022-10-16T14:04:51;0.60;;;0.60;;
22388;SDS011;11362;48.102;11.620;2022-10-16T14:07:28;0.53;;;0.53;;
22388;SDS011;11362;48.102;11.620;2022-10-16T14:09:56;0.80;;;0.80;;
22388;SDS011;11362;48.102;11.620;2022-10-16T14:12:25;0.50;;;0.50;;
22388;SDS011;11362;48.102;11.620;2022-10-16T14:14:51;0.50;;;0.50;;
22388;SDS011;11362;48.102;11.620;2022-10-16T14:17:20;0.83;;;0.63;;
22388;SDS011;11362;48.102;11.620;2022-10-16T14:19:49;0.80;;;0.80;;
22388;SDS011;11362;48.102;11.620;2022-10-16T14:22:30;0.70;;;0.70;;
22388;SDS011;11362;48.102;11.620;2022-10-16T14:24:59;0.97;;;0.50;;
22388;SDS011;11362;48.102;11.620;2022-10-16T14:27:33;1.23;;;0.70;;
22388;SDS011;11362;48.102;11.620;2022-10-16T14:30:19;0.60;;;0.60;;
22388;SDS011;11362;48.102;11.620;2022-10-16T14:32:53;0.70;;;0.70;;
22388;SDS011;11362;48.102;11.620;2022-10-16T14:35:41;0.70;;;0.70;;
22388;SDS011;11362;48.102;11.620;2022-10-16T14:38:16;0.70;;;0.70;;
22388;SDS011;11362;48.102;11.620;2022-10-16T14:40:46;0.70;;;0.70;;
22388;SDS011;11362;48.102;11.620;2022-10-16T14:43:14;0.63;;;0.63;;
22388;SDS011;11362;48.102;11.620;2022-10-16T14:45:53;0.70;;;0.70;;
22388;SDS011;11362;48.102;11.620;2022-10-16T14:48:21;0.70;;;0.70;;
22388;SDS011;11362;48.102;11.620;2022-10-16T14:50:46;0.90;;;0.90;;
22388;SDS011;11362;48.102;11.620;2022-10-16T14:53:12;0.60;;;0.60;;
22388;SDS011;11362;48.102;11.620;2022-10-16T14:55:38;0.40;;;0.40;;
22388;SDS011;11362;48.102;11.620;2022-10-16T14:58:04;0.80;;;0.80;;
22388;SDS011;11362;48.102;11.620;2022-10-16T15:00:30;0.60;;;0.60;;
22388;SDS011;11362;48.102;11.620;2022-10-16T15:02:55;0.60;;;0.60;;
22388;SDS011;11362;48.102;11.620;2022-10-16T15:05:22;0.70;;;0.70;;
22388;SDS011;11362;48.102;11.620;2022-10-16T15:07:52;0.60;;;0.60;;
22388;SDS011;11362;48.102;11.620;2022-10-16T15:10:19;0.70;;;0.70;;
22388;SDS011;11362;48.102;11.620;2022-10-16T15:12:47;0.70;;;0.70;;
22388;SDS011;11362;48.102;11.620;2022-10-16T15:15:21;0.60;;;0.60;;
22388;SDS011;11362;48.102;11.620;2022-10-16T15:17:49;0.70;;;0.70;;
22388;SDS011;11362;48.102;11.620;2022-10-16T15:20:15;0.63;;;0.63;;
22388;SDS011;11362;48.102;11.620;2022-10-16T15:22:40;0.60;;;0.60;;
22388;SDS011;11362;48.102;11.620;2022-10-16T15:25:41;0.70;;;0.70;;
22388;SDS011;11362;48.102;11.620;2022-10-16T15:28:03;0.60;;;0.60;;
22388;SDS011;11362;48.102;11.620;2022-10-16T15:30:29;0.73;;;0.73;;
22388;SDS011;11362;48.102;11.620;2022-10-16T15:32:54;0.70;;;0.70;;
22388;SDS011;11362;48.102;11.620;2022-10-16T15:35:20;0.70;;;0.70;;
22388;SDS011;11362;48.102;11.620;2022-10-16T15:37:46;0.83;;;0.70;;
22388;SDS011;11362;48.102;11.620;2022-10-16T15:40:12;0.60;;;0.60;;
22388;SDS011;11362;48.102;11.620;2022-10-16T15:42:37;0.57;;;0.57;;
22388;SDS011;11362;48.102;11.620;2022-10-16T15:45:02;0.60;;;0.60;;
22388;SDS011;11362;48.102;11.620;2022-10-16T15:47:28;0.60;;;0.60;;
22388;SDS011;11362;48.102;11.620;2022-10-16T15:49:53;0.80;;;0.80;;
22388;SDS011;11362;48.102;11.620;2022-10-16T15:52:19;0.70;;;0.70;;
22388;SDS011;11362;48.102;11.620;2022-10-16T15:54:44;1.07;;;0.70;;
22388;SDS011;11362;48.102;11.620;2022-10-16T15:57:09;1.00;;;1.00;;
22388;SDS011;11362;48.102;11.620;2022-10-16T15:59:34;0.53;;;0.53;;
22388;SDS011;11362;48.102;11.620;2022-10-16T16:02:00;0.83;;;0.53;;
22388;SDS011;11362;48.102;11.620;2022-10-16T16:04:25;0.80;;;0.63;;
22388;SDS011;11362;48.102;11.620;2022-10-16T16:06:50;0.70;;;0.70;;
22388;SDS011;11362;48.102;11.620;2022-10-16T16:09:16;0.50;;;0.50;;
22388;SDS011;11362;48.102;11.620;2022-10-16T16:11:41;0.67;;;0.67;;
22388;SDS011;11362;48.102;11.620;2022-10-16T16:14:08;0.70;;;0.70;;
22388;SDS011;11362;48.102;11.620;2022-10-16T16:16:36;0.70;;;0.70;;
22388;SDS011;11362;48.102;11.620;2022-10-16T16:19:02;0.90;;;0.90;;
22388;SDS011;11362;48.102;11.620;2022-10-16T16:21:28;0.70;;;0.70;;
22388;SDS011;11362;48.102;11.620;2022-10-16T16:23:54;0.70;;;0.70;;
22388;SDS011;11362;48.102;11.620;2022-10-16T16:28:54;0.80;;;0.80;;
22388;SDS011;11362;48.102;11.620;2022-10-16T16:31:20;0.87;;;0.87;;
22388;SDS011;11362;48.102;11.620;2022-10-16T16:33:52;0.70;;;0.70;;
22388;SDS011;11362;48.102;11.620;2022-10-16T16:36:18;0.70;;;0.70;;
22388;SDS011;11362;48.102;11.620;2022-10-16T16:38:44;0.73;;;0.73;;
22388;SDS011;11362;48.102;11.620;2022-10-16T16:41:11;0.70;;;0.70;;
22388;SDS011;11362;48.102;11.620;2022-10-16T16:43:37;0.67;;;0.67;;